Idahome, Idaho
Current Conditions -  °F | °C
As of 10:53 PM on Tuesday 21 Oct 2014 (Local Time) from KBYI Reporting Station
Clear Clear  
Wind Chill: 33°   Ceiling: Unl
Heat Index: 40°   Visibility: 10mi
Dew Point: 34°   Wind: 13mph
Humidity: 79%   Direction: 210°SSW
Pressure: 30.09"   Gusts: NA
Location:  42.5399°N, 113.621°W
Report Text: KBYI 220453Z AUTO 21011KT 10SM CLR 04/01 A3009 RMK AO2 SLP187 T00440011
Loading
Personal Weather Stations






























Interactive Weather Map
Tropical Storm Tracking
New forecast layout! Learn more

10-Day Weather Forecast

Advertisements
Track Severe Weather on mobile